createdAt,value
2018-12-05T00:02:08.071Z,102519.94
2018-12-05T00:04:36.010Z,102512.94
2018-12-05T00:07:03.782Z,102519.51
2018-12-05T00:09:31.422Z,102510.75
2018-12-05T00:11:59.271Z,102506.80
2018-12-05T00:14:28.734Z,102512.07
2018-12-05T00:16:56.471Z,102508.14
2018-12-05T00:19:24.141Z,102505.08
2018-12-05T00:21:53.198Z,102502.01
2018-12-05T00:24:22.032Z,102504.66
2018-12-05T00:26:58.946Z,102510.79
2018-12-05T00:29:28.235Z,102509.49
2018-12-05T00:31:55.975Z,102512.11
2018-12-05T00:34:23.960Z,102513.42
2018-12-05T00:36:51.925Z,102511.66
2018-12-05T00:39:19.928Z,102504.67
2018-12-05T00:41:47.741Z,102511.67
2018-12-05T00:44:15.583Z,102509.05
2018-12-05T00:46:44.429Z,102511.22
2018-12-05T00:49:13.529Z,102511.67
2018-12-05T00:51:41.764Z,102515.60
2018-12-05T00:54:10.289Z,102516.91
2018-12-05T00:56:38.216Z,102524.77
2018-12-05T00:59:06.582Z,102525.23
2018-12-05T01:01:34.628Z,102530.03
2018-12-05T01:04:02.336Z,102530.47
2018-12-05T01:06:30.347Z,102532.20
2018-12-05T01:08:57.976Z,102538.78
2018-12-05T01:11:26.224Z,102539.65
2018-12-05T01:13:54.014Z,102542.70
2018-12-05T01:16:21.744Z,102541.39
2018-12-05T01:18:49.672Z,102549.28
2018-12-05T01:21:17.640Z,102548.42
2018-12-05T01:23:46.044Z,102554.52
2018-12-05T01:26:14.085Z,102557.58
2018-12-05T01:28:41.995Z,102563.70
2018-12-05T01:31:09.637Z,102568.05
2018-12-05T01:33:37.283Z,102572.89
2018-12-05T01:36:04.957Z,102569.36
2018-12-05T01:38:32.577Z,102572.84
2018-12-05T01:41:00.187Z,102570.61
2018-12-05T01:43:32.372Z,102566.26
2018-12-05T01:46:00.028Z,102562.70
2018-12-05T01:48:27.707Z,102562.25
2018-12-05T01:50:55.416Z,102567.48
2018-12-05T01:53:22.984Z,102561.81
2018-12-05T01:55:50.656Z,102569.22
2018-12-05T01:58:18.256Z,102572.28
2018-12-05T02:00:45.874Z,102572.27
2018-12-05T02:03:13.563Z,102575.33
2018-12-05T02:05:41.208Z,102577.91
2018-12-05T02:08:08.860Z,102577.00
2018-12-05T02:10:36.449Z,102580.06
2018-12-05T02:13:04.170Z,102575.24
2018-12-05T02:15:31.736Z,102573.51
2018-12-05T02:17:59.301Z,102569.11
2018-12-05T02:20:26.938Z,102573.47
2018-12-05T02:22:54.521Z,102563.84
2018-12-05T02:25:22.235Z,102576.05
2018-12-05T02:27:49.862Z,102574.72
2018-12-05T02:30:17.472Z,102573.42
2018-12-05T02:32:45.130Z,102572.98
2018-12-05T02:35:12.779Z,102573.85
2018-12-05T02:37:40.327Z,102572.96
2018-12-05T02:40:08.117Z,102576.89
2018-12-05T02:42:35.721Z,102569.91
2018-12-05T02:45:03.322Z,102567.28
2018-12-05T02:47:31.151Z,102560.29
2018-12-05T02:49:58.824Z,102568.16
2018-12-05T02:52:26.520Z,102572.96
2018-12-05T02:54:54.159Z,102569.03
2018-12-05T02:57:21.742Z,102568.59
2018-12-05T02:59:49.363Z,102570.78
2018-12-05T03:02:17.015Z,102565.08
2018-12-05T03:04:44.706Z,102572.91
2018-12-05T03:07:12.306Z,102576.45
2018-12-05T03:09:40.083Z,102569.03
2018-12-05T03:12:07.854Z,102566.84
2018-12-05T03:14:42.153Z,102570.31
2018-12-05T03:17:09.817Z,102574.71
2018-12-05T03:19:37.467Z,102566.38
2018-12-05T03:22:05.084Z,102567.69
2018-12-05T03:24:32.720Z,102572.49
2018-12-05T03:27:00.412Z,102571.19
2018-12-05T03:29:28.086Z,102571.63
2018-12-05T03:31:55.835Z,102579.48
2018-12-05T03:34:23.450Z,102580.80
2018-12-05T03:36:51.854Z,102583.42
2018-12-05T03:39:19.607Z,102582.95
2018-12-05T03:41:47.306Z,102579.86
2018-12-05T03:44:14.928Z,102581.66
2018-12-05T03:46:42.513Z,102581.23
2018-12-05T03:49:10.292Z,102576.88
2018-12-05T03:51:37.966Z,102576.42
2018-12-05T03:54:05.557Z,102582.11
2018-12-05T03:56:33.197Z,102575.95
2018-12-05T03:59:00.847Z,102571.56
2018-12-05T04:01:28.508Z,102572.90
2018-12-05T04:03:56.116Z,102571.56
2018-12-05T04:06:23.839Z,102577.67
2018-12-05T04:08:51.482Z,102573.33
2018-12-05T04:11:19.188Z,102576.77
2018-12-05T04:13:46.833Z,102584.20
2018-12-05T04:16:14.486Z,102590.31
2018-12-05T04:18:42.133Z,102583.34
2018-12-05T04:21:09.753Z,102587.66
2018-12-05T04:23:37.515Z,102591.17
2018-12-05T04:26:05.155Z,102588.09
2018-12-05T04:28:32.766Z,102587.20
2018-12-05T04:31:00.405Z,102589.41
2018-12-05T04:33:27.992Z,102588.53
2018-12-05T04:35:55.639Z,102593.84
2018-12-05T04:38:23.252Z,102599.53
2018-12-05T04:40:50.912Z,102597.80
2018-12-05T04:43:18.572Z,102602.60
2018-12-05T04:45:46.207Z,102601.75
2018-12-05T04:48:13.834Z,102602.63
2018-12-05T04:50:41.460Z,102599.58
2018-12-05T04:53:09.062Z,102594.76
2018-12-05T04:55:36.718Z,102595.21
2018-12-05T04:58:04.416Z,102596.55
2018-12-05T05:00:32.049Z,102596.53
2018-12-05T05:02:59.747Z,102606.16
2018-12-05T05:05:27.460Z,102601.36
2018-12-05T05:07:55.085Z,102595.26
2018-12-05T05:10:22.774Z,102602.23
2018-12-05T05:12:50.421Z,102600.94
2018-12-05T05:15:18.068Z,102599.59
2018-12-05T05:17:45.674Z,102609.22
2018-12-05T05:20:13.283Z,102607.94
2018-12-05T05:22:40.957Z,102603.59
2018-12-05T05:25:08.715Z,102611.89
2018-12-05T05:27:36.392Z,102611.84
2018-12-05T05:30:10.146Z,102619.70
2018-12-05T05:32:37.788Z,102617.51
2018-12-05T05:35:05.449Z,102615.36
2018-12-05T05:37:33.084Z,102612.72
2018-12-05T05:40:00.709Z,102614.47
2018-12-05T05:42:29.537Z,102614.03
2018-12-05T05:44:57.166Z,102614.48
2018-12-05T05:47:25.005Z,102617.95
2018-12-05T05:49:52.750Z,102613.59
2018-12-05T05:52:20.393Z,102614.45
2018-12-05T05:54:48.084Z,102617.08
2018-12-05T05:57:15.786Z,102614.43
2018-12-05T05:59:43.453Z,102603.55
2018-12-05T06:02:11.068Z,102603.07
2018-12-05T06:04:38.727Z,102599.58
2018-12-05T06:07:06.413Z,102592.16
2018-12-05T06:09:34.038Z,102592.59
2018-12-05T06:12:01.711Z,102593.90
2018-12-05T06:14:29.336Z,102593.45
2018-12-05T06:16:57.091Z,102594.32
2018-12-05T06:19:24.846Z,102595.65
2018-12-05T06:21:52.504Z,102597.81
2018-12-05T06:24:20.183Z,102607.84
2018-12-05T06:26:47.852Z,102603.05
2018-12-05T06:29:15.473Z,102615.23
2018-12-05T06:31:43.132Z,102618.77
2018-12-05T06:34:10.753Z,102613.09
2018-12-05T06:36:38.432Z,102617.92
2018-12-05T06:39:06.630Z,102609.19
2018-12-05T06:41:34.245Z,102619.67
2018-12-05T06:44:01.904Z,102618.34
2018-12-05T06:46:29.518Z,102621.83
2018-12-05T06:48:57.165Z,102607.84
2018-12-05T06:51:25.059Z,102607.84
2018-12-05T06:53:52.756Z,102613.09
2018-12-05T06:56:20.398Z,102608.30
2018-12-05T06:58:48.033Z,102615.73
2018-12-05T07:01:15.670Z,102614.87
2018-12-05T07:03:43.251Z,102618.36
2018-12-05T07:06:10.959Z,102626.23
2018-12-05T07:08:38.587Z,102623.19
2018-12-05T07:11:06.203Z,102621.88
2018-12-05T07:13:33.903Z,102625.38
2018-12-05T07:16:01.515Z,102621.89
2018-12-05T07:18:29.163Z,102620.11
2018-12-05T07:20:56.831Z,102622.70
2018-12-05T07:23:24.719Z,102622.27
2018-12-05T07:25:52.736Z,102619.67
2018-12-05T07:28:20.407Z,102628.43
2018-12-05T07:30:48.071Z,102623.17
2018-12-05T07:33:15.750Z,102626.64
2018-12-05T07:35:43.368Z,102631.84
2018-12-05T07:38:11.071Z,102637.52
2018-12-05T07:40:38.724Z,102634.88
2018-12-05T07:43:06.380Z,102636.19
2018-12-05T07:45:33.988Z,102640.08
2018-12-05T07:48:01.663Z,102635.77
2018-12-05T07:50:29.318Z,102632.67
2018-12-05T07:52:56.967Z,102634.42
2018-12-05T07:55:24.606Z,102635.71
2018-12-05T07:57:52.192Z,102644.91
2018-12-05T08:00:19.852Z,102644.48
2018-12-05T08:02:47.449Z,102649.33
2018-12-05T08:05:15.208Z,102644.56
2018-12-05T08:07:42.833Z,102643.23
2018-12-05T08:10:10.463Z,102642.83
2018-12-05T08:12:38.156Z,102649.38
2018-12-05T08:15:07.085Z,102651.55
2018-12-05T08:17:34.762Z,102647.18
2018-12-05T08:20:02.364Z,102649.36
2018-12-05T08:22:29.983Z,102651.09
2018-12-05T08:24:57.595Z,102654.15
2018-12-05T08:27:25.215Z,102652.86
2018-12-05T08:29:52.860Z,102651.09
2018-12-05T08:32:20.541Z,102645.39
2018-12-05T08:34:48.330Z,102648.47
2018-12-05T08:37:15.960Z,102643.70
2018-12-05T08:39:43.654Z,102637.13
2018-12-05T08:42:11.249Z,102628.81
2018-12-05T08:44:38.887Z,102628.39
2018-12-05T08:47:06.513Z,102631.03
2018-12-05T08:49:34.101Z,102626.19
2018-12-05T08:52:02.085Z,102636.24
2018-12-05T08:54:29.704Z,102631.89
2018-12-05T08:56:57.395Z,102632.75
2018-12-05T08:59:24.965Z,102643.23
2018-12-05T09:01:52.642Z,102637.15
2018-12-05T09:04:20.247Z,102636.26
2018-12-05T09:06:47.907Z,102634.05
2018-12-05T09:09:15.571Z,102624.46
2018-12-05T09:11:43.222Z,102624.05
2018-12-05T09:14:10.806Z,102626.23
2018-12-05T09:16:38.483Z,102630.64
2018-12-05T09:19:06.149Z,102631.97
2018-12-05T09:21:33.767Z,102623.73
2018-12-05T09:24:01.367Z,102624.59
2018-12-05T09:26:28.961Z,102624.58
2018-12-05T09:28:57.326Z,102629.84
2018-12-05T09:31:25.167Z,102626.80
2018-12-05T09:33:52.925Z,102618.05
2018-12-05T09:36:20.539Z,102625.97
2018-12-05T09:38:48.145Z,102622.95
2018-12-05T09:41:15.753Z,102622.48
2018-12-05T09:43:43.308Z,102624.21
2018-12-05T09:46:10.942Z,102618.58
2018-12-05T09:48:38.569Z,102622.53
2018-12-05T09:51:06.178Z,102616.86
2018-12-05T09:53:33.810Z,102619.03
2018-12-05T09:56:01.497Z,102620.37
2018-12-05T09:58:29.068Z,102610.77
2018-12-05T10:00:56.810Z,102612.09
2018-12-05T10:03:24.458Z,102609.48
2018-12-05T10:05:52.050Z,102598.12
2018-12-05T10:08:19.731Z,102593.74
2018-12-05T10:10:47.573Z,102597.67
2018-12-05T10:13:15.176Z,102597.25
2018-12-05T10:15:42.883Z,102597.27
2018-12-05T10:18:10.453Z,102595.52
2018-12-05T10:20:38.037Z,102589.37
2018-12-05T10:23:05.667Z,102587.65
2018-12-05T10:25:33.339Z,102583.30
2018-12-05T10:28:00.957Z,102588.96
2018-12-05T10:30:28.612Z,102583.30
2018-12-05T10:32:56.208Z,102581.54
2018-12-05T10:35:23.827Z,102583.73
2018-12-05T10:37:51.515Z,102578.95
2018-12-05T10:40:19.220Z,102583.31
2018-12-05T10:42:46.855Z,102584.61
2018-12-05T10:45:14.503Z,102576.30
2018-12-05T10:47:42.166Z,102578.08
2018-12-05T10:50:09.785Z,102582.45
2018-12-05T10:52:37.423Z,102578.95
2018-12-05T10:55:05.228Z,102575.91
2018-12-05T10:57:32.799Z,102578.10
2018-12-05T11:00:00.391Z,102579.41
2018-12-05T11:02:33.696Z,102572.84
2018-12-05T11:06:07.740Z,102573.29
2018-12-05T11:08:40.863Z,102573.72
2018-12-05T11:11:14.159Z,102578.55
2018-12-05T11:13:47.399Z,102572.00
2018-12-05T11:16:20.741Z,102560.62
2018-12-05T11:18:54.028Z,102556.26
2018-12-05T11:21:27.324Z,102550.13
2018-12-05T11:26:02.857Z,102550.17
2018-12-05T11:28:30.540Z,102548.44
2018-12-05T11:30:58.479Z,102554.14
2018-12-05T11:33:26.082Z,102548.86
2018-12-05T11:35:53.730Z,102543.20
2018-12-05T11:38:21.385Z,102534.87
2018-12-05T11:40:49.085Z,102540.12
2018-12-05T11:43:16.794Z,102534.47
2018-12-05T11:45:44.409Z,102531.84
2018-12-05T11:48:12.048Z,102529.64
2018-12-05T11:50:39.633Z,102528.34
2018-12-05T11:53:07.255Z,102520.47
2018-12-05T11:55:34.868Z,102520.48
2018-12-05T11:58:02.672Z,102516.52
2018-12-05T12:00:30.373Z,102516.53
2018-12-05T12:03:04.801Z,102512.59
2018-12-05T12:05:32.379Z,102505.16
2018-12-05T12:08:00.354Z,102501.68
2018-12-05T12:10:34.179Z,102498.61
2018-12-05T12:13:06.948Z,102491.19
2018-12-05T12:15:34.651Z,102485.95
2018-12-05T12:18:03.500Z,102485.95
2018-12-05T12:20:31.183Z,102483.31
2018-12-05T12:22:58.850Z,102478.07
2018-12-05T12:25:26.466Z,102474.56
2018-12-05T12:27:54.104Z,102468.02
2018-12-05T12:30:21.728Z,102465.44
2018-12-05T12:32:49.471Z,102467.13
2018-12-05T12:35:17.122Z,102463.67
2018-12-05T12:37:44.830Z,102461.04
2018-12-05T12:40:12.496Z,102458.40
2018-12-05T12:42:40.063Z,102454.91
2018-12-05T12:45:07.637Z,102454.02
2018-12-05T12:47:35.285Z,102443.52
2018-12-05T12:50:03.150Z,102438.27
2018-12-05T12:52:30.750Z,102439.16
2018-12-05T12:54:58.370Z,102432.16
2018-12-05T12:57:26.024Z,102436.52
2018-12-05T12:59:53.675Z,102435.22
2018-12-05T13:02:21.447Z,102435.64
2018-12-05T13:04:49.048Z,102433.02
2018-12-05T13:07:16.678Z,102422.97
2018-12-05T13:09:44.407Z,102433.03
2018-12-05T13:12:16.510Z,102419.91
2018-12-05T13:14:44.135Z,102424.26
2018-12-05T13:17:11.741Z,102422.50
2018-12-05T13:19:39.391Z,102418.13
2018-12-05T13:22:07.022Z,102413.73
2018-12-05T13:24:34.641Z,102413.30
2018-12-05T13:27:02.339Z,102407.19
2018-12-05T13:29:29.982Z,102410.25
2018-12-05T13:31:57.675Z,102402.36
2018-12-05T13:34:25.234Z,102394.49
2018-12-05T13:36:52.811Z,102384.84
2018-12-05T13:39:20.459Z,102383.53
2018-12-05T13:41:48.000Z,102370.81
2018-12-05T13:44:15.735Z,102362.51
2018-12-05T13:46:43.314Z,102354.20
2018-12-05T13:49:10.964Z,102355.48
2018-12-05T13:51:38.584Z,102350.23
2018-12-05T13:54:06.242Z,102353.31
2018-12-05T13:56:33.856Z,102352.00
2018-12-05T13:59:01.536Z,102352.00
2018-12-05T14:01:29.132Z,102343.70
2018-12-05T14:03:56.749Z,102341.07
2018-12-05T14:06:24.365Z,102340.64
2018-12-05T14:08:51.933Z,102341.06
2018-12-05T14:11:19.569Z,102345.03
2018-12-05T14:13:47.356Z,102342.41
2018-12-05T14:16:15.087Z,102340.63
2018-12-05T14:18:42.673Z,102325.77
2018-12-05T14:21:10.297Z,102327.53
2018-12-05T14:23:37.916Z,102320.53
2018-12-05T14:26:05.991Z,102321.84
2018-12-05T14:28:33.627Z,102321.41
2018-12-05T14:31:01.247Z,102320.56
2018-12-05T14:33:28.879Z,102316.16
2018-12-05T14:35:56.532Z,102309.16
2018-12-05T14:38:24.256Z,102304.34
2018-12-05T14:40:51.825Z,102305.25
2018-12-05T14:43:19.614Z,102298.68
2018-12-05T14:45:47.194Z,102297.36
2018-12-05T14:48:14.777Z,102295.63
2018-12-05T14:50:42.402Z,102296.50
2018-12-05T14:53:10.118Z,102295.61
2018-12-05T14:55:37.851Z,102300.44
2018-12-05T14:58:05.435Z,102301.31
2018-12-05T15:00:33.102Z,102299.57
2018-12-05T15:03:00.770Z,102296.97
2018-12-05T15:05:28.440Z,102285.59
2018-12-05T15:07:56.583Z,102289.52
2018-12-05T15:10:24.568Z,102276.39
2018-12-05T15:12:52.312Z,102279.91
2018-12-05T15:15:19.912Z,102276.84
2018-12-05T15:17:47.592Z,102279.05
2018-12-05T15:20:15.250Z,102274.67
2018-12-05T15:22:42.806Z,102272.92
2018-12-05T15:25:11.278Z,102269.87
2018-12-05T15:27:38.891Z,102268.97
2018-12-05T15:30:06.583Z,102265.03
2018-12-05T15:32:34.155Z,102258.51
2018-12-05T15:35:01.773Z,102250.17
2018-12-05T15:37:29.397Z,102250.19
2018-12-05T15:39:57.108Z,102243.20
2018-12-05T15:42:24.717Z,102236.63
2018-12-05T15:44:52.322Z,102233.16
2018-12-05T15:47:19.956Z,102232.27
2018-12-05T15:49:47.532Z,102224.83
2018-12-05T15:52:15.146Z,102211.71
2018-12-05T15:54:42.767Z,102207.34
2018-12-05T15:57:10.401Z,102199.05
2018-12-05T15:59:38.130Z,102197.27
2018-12-05T16:02:05.748Z,102187.66
2018-12-05T16:04:33.419Z,102185.50
2018-12-05T16:07:01.046Z,102187.23
2018-12-05T16:09:28.686Z,102176.74
2018-12-05T16:11:56.396Z,102181.98
2018-12-05T16:14:24.001Z,102173.27
2018-12-05T16:16:51.586Z,102164.08
2018-12-05T16:19:19.216Z,102161.89
2018-12-05T16:21:46.794Z,102154.45
2018-12-05T16:24:14.410Z,102156.21
2018-12-05T16:26:42.064Z,102154.89
2018-12-05T16:29:09.720Z,102144.87
2018-12-05T16:31:37.312Z,102139.63
2018-12-05T16:34:04.901Z,102137.00
2018-12-05T16:36:32.522Z,102123.00
2018-12-05T16:39:00.089Z,102127.36
2018-12-05T16:41:27.779Z,102125.19
2018-12-05T16:43:55.401Z,102121.27
2018-12-05T16:46:22.983Z,102114.25
2018-12-05T16:48:50.575Z,102111.66
2018-12-05T16:51:18.285Z,102100.71
2018-12-05T16:53:45.899Z,102102.91
2018-12-05T16:56:13.542Z,102099.40
2018-12-05T16:58:41.229Z,102092.42
2018-12-05T17:01:08.889Z,102091.95
2018-12-05T17:03:36.538Z,102088.91
2018-12-05T17:06:04.231Z,102084.52
2018-12-05T17:08:31.853Z,102083.20
2018-12-05T17:10:59.625Z,102076.22
2018-12-05T17:13:27.307Z,102074.03
2018-12-05T17:15:54.931Z,102073.59
2018-12-05T17:18:22.619Z,102070.09
2018-12-05T17:20:50.225Z,102066.16
2018-12-05T17:23:17.816Z,102072.29
2018-12-05T17:25:45.433Z,102063.53
2018-12-05T17:28:13.054Z,102058.75
2018-12-05T17:30:40.672Z,102051.73
2018-12-05T17:33:08.270Z,102046.95
2018-12-05T17:35:35.908Z,102039.08
2018-12-05T17:38:03.457Z,102029.45
2018-12-05T17:40:31.098Z,102025.09
2018-12-05T17:42:58.687Z,102026.39
2018-12-05T17:45:26.364Z,102025.09
2018-12-05T17:47:54.001Z,102016.37
2018-12-05T17:50:21.606Z,102018.99
2018-12-05T17:52:49.203Z,102011.12
2018-12-05T17:55:16.816Z,102006.77
2018-12-05T17:57:44.472Z,102013.32
2018-12-05T18:00:12.067Z,102005.45
2018-12-05T18:02:39.612Z,101999.33
2018-12-05T18:05:07.264Z,102003.69
2018-12-05T18:07:34.833Z,102001.95
2018-12-05T18:10:02.393Z,102000.64
2018-12-05T18:12:30.012Z,101997.13
2018-12-05T18:14:57.647Z,101998.44
2018-12-05T18:17:25.249Z,101994.08
2018-12-05T18:19:52.827Z,101992.31
2018-12-05T18:22:20.447Z,101985.33
2018-12-05T18:24:48.062Z,101977.89
2018-12-05T18:27:15.731Z,101976.57
2018-12-05T18:29:43.499Z,101966.08
2018-12-05T18:32:11.099Z,101966.97
2018-12-05T18:34:38.688Z,101965.20
2018-12-05T18:37:06.386Z,101960.83
2018-12-05T18:39:33.966Z,101952.08
2018-12-05T18:42:01.555Z,101949.92
2018-12-05T18:44:29.168Z,101949.92
2018-12-05T18:46:56.760Z,101944.67
2018-12-05T18:49:24.469Z,101948.15
2018-12-05T18:51:52.013Z,101941.59
2018-12-05T18:54:19.608Z,101936.34
2018-12-05T18:56:47.244Z,101935.49
2018-12-05T18:59:14.829Z,101931.56
2018-12-05T19:01:42.443Z,101930.68
2018-12-05T19:04:10.158Z,101929.80
2018-12-05T19:06:37.731Z,101914.94
2018-12-05T19:09:07.300Z,101906.19
2018-12-05T19:11:35.059Z,101902.26
2018-12-05T19:14:08.328Z,101903.14
2018-12-05T19:16:35.957Z,101897.44
2018-12-05T19:19:05.060Z,101891.34
2018-12-05T19:21:32.776Z,101888.25
2018-12-05T19:24:00.492Z,101886.51
2018-12-05T19:26:28.137Z,101889.55
2018-12-05T19:28:55.853Z,101880.79
2018-12-05T19:31:23.637Z,101878.59
2018-12-05T19:33:51.319Z,101873.77
2018-12-05T19:36:18.997Z,101866.35
2018-12-05T19:38:46.614Z,101864.58
2018-12-05T19:41:14.212Z,101852.78
2018-12-05T19:43:41.884Z,101850.61
2018-12-05T19:46:09.686Z,101847.98
2018-12-05T19:48:37.317Z,101844.47
2018-12-05T19:51:04.944Z,101845.29
2018-12-05T19:53:32.545Z,101837.83
2018-12-05T19:56:00.181Z,101841.30
2018-12-05T19:58:27.804Z,101840.86
2018-12-05T20:00:55.445Z,101840.81
2018-12-05T20:03:23.043Z,101832.95
2018-12-05T20:05:50.682Z,101835.98
2018-12-05T20:08:18.258Z,101833.83
2018-12-05T20:10:46.006Z,101837.75
2018-12-05T20:13:13.651Z,101835.98
2018-12-05T20:15:41.244Z,101832.95
2018-12-05T20:18:08.870Z,101834.73
2018-12-05T20:20:36.499Z,101830.37
2018-12-05T20:23:04.088Z,101829.06
2018-12-05T20:25:31.696Z,101813.33
2018-12-05T20:27:59.314Z,101816.37
2018-12-05T20:30:26.951Z,101811.14
2018-12-05T20:32:54.590Z,101811.60
2018-12-05T20:35:22.341Z,101810.23
2018-12-05T20:37:49.946Z,101808.91
2018-12-05T20:40:17.581Z,101805.87
2018-12-05T20:42:45.287Z,101799.74
2018-12-05T20:45:12.921Z,101802.37
2018-12-05T20:47:40.496Z,101810.23
2018-12-05T20:50:08.155Z,101807.20
2018-12-05T20:52:35.804Z,101802.42
2018-12-05T20:55:03.428Z,101796.28
2018-12-05T20:57:31.123Z,101793.66
2018-12-05T20:59:58.923Z,101794.55
2018-12-05T21:02:26.552Z,101795.41
2018-12-05T21:04:55.861Z,101801.53
2018-12-05T21:07:23.808Z,101793.66
2018-12-05T21:09:51.491Z,101798.02
2018-12-05T21:12:19.124Z,101805.47
2018-12-05T21:14:46.739Z,101794.95
2018-12-05T21:17:14.372Z,101792.77
2018-12-05T21:19:41.953Z,101790.16
2018-12-05T21:22:09.753Z,101794.13
2018-12-05T21:24:37.385Z,101786.22
2018-12-05T21:27:04.991Z,101786.22
2018-12-05T21:29:32.640Z,101786.27
2018-12-05T21:32:00.243Z,101781.47
2018-12-05T21:34:27.859Z,101770.15
2018-12-05T21:36:55.624Z,101770.57
2018-12-05T21:39:23.239Z,101764.46
2018-12-05T21:41:51.974Z,101761.84
2018-12-05T21:44:19.598Z,101757.43
2018-12-05T21:46:47.198Z,101748.26
2018-12-05T21:49:14.858Z,101744.73
2018-12-05T21:51:42.517Z,101741.22
2018-12-05T21:54:10.121Z,101738.59
2018-12-05T21:56:44.378Z,101738.16
2018-12-05T21:59:11.972Z,101734.24
2018-12-05T22:01:39.555Z,101726.38
2018-12-05T22:04:07.202Z,101720.69
2018-12-05T22:06:34.853Z,101720.72
2018-12-05T22:09:03.177Z,101715.06
2018-12-05T22:11:30.787Z,101707.61
2018-12-05T22:13:58.367Z,101704.56
2018-12-05T22:16:25.979Z,101703.69
2018-12-05T22:18:53.584Z,101699.74
2018-12-05T22:21:21.291Z,101697.13
2018-12-05T22:23:48.944Z,101684.91
2018-12-05T22:26:16.709Z,101681.39
2018-12-05T22:28:44.397Z,101675.72
2018-12-05T22:31:12.099Z,101677.01
2018-12-05T22:33:40.259Z,101678.73
2018-12-05T22:36:07.979Z,101673.00
2018-12-05T22:38:35.649Z,101676.95
2018-12-05T22:41:03.237Z,101671.27
2018-12-05T22:43:30.836Z,101669.54
2018-12-05T22:45:58.433Z,101671.69
2018-12-05T22:48:26.056Z,101667.33
2018-12-05T22:50:53.679Z,101677.35
2018-12-05T22:53:21.327Z,101668.22
2018-12-05T22:55:49.223Z,101671.69
2018-12-05T22:58:16.817Z,101667.77
2018-12-05T23:00:46.360Z,101655.53
2018-12-05T23:03:13.987Z,101648.95
2018-12-05T23:05:41.590Z,101638.89
2018-12-05T23:08:09.212Z,101644.55
2018-12-05T23:10:36.973Z,101640.20
2018-12-05T23:13:04.588Z,101630.19
2018-12-05T23:15:32.252Z,101628.89
2018-12-05T23:17:59.960Z,101619.69
2018-12-05T23:20:27.610Z,101623.57
2018-12-05T23:22:55.181Z,101609.09
2018-12-05T23:25:22.771Z,101609.94
2018-12-05T23:27:52.092Z,101599.02
2018-12-05T23:30:21.302Z,101591.17
2018-12-05T23:32:48.943Z,101588.54
2018-12-05T23:35:16.585Z,101580.22
2018-12-05T23:37:44.239Z,101575.42
2018-12-05T23:40:11.847Z,101573.29
2018-12-05T23:42:39.662Z,101567.62
2018-12-05T23:45:07.593Z,101568.05
2018-12-05T23:47:35.229Z,101557.58
2018-12-05T23:50:02.947Z,101553.20
2018-12-05T23:52:30.561Z,101550.59
2018-12-05T23:54:58.181Z,101544.95
2018-12-05T23:57:25.821Z,101535.78
2018-12-05T23:59:53.431Z,101529.23
